Portada
METAR-TAF:

METAR-TAF

Aeroports :

Tirupati, Índia

latitud: 13-38-16N, longitud: 79-32-50E, altitud: 107 m

Observació

L'informe es va fer fa 5 hores i 32 minuts, a les 14:00 UTC
Vent 10 kt del Sud/Sud-Oest
Temperatura 33°C
Humitat 53%
Pressió 1008 hPa
Visibilitat: 6000 m
Escasses núvols a una alçada de 2000 ft
Cel ennuvolat a una alçada de 10000 ft

METAR: VOTP 071400Z 21010KT 6000 FEW020 BKN100 33/22 Q1008

Hora: 01:02 (19:32 UTC)

Pronòstic

L'informe es va fer fa 14 hores i 32 minuts, a les 05:00 UTC
Pronòstic vàlid del 07 a les 06 UTC al 07 a les 15 UTC
Vent 10 kt del Sud/Sud-Oest
Visibilitat: 6000 m
Núvols disperses a una alçada de 2000 ft
Núvols disperses a una alçada de 10000 ft

TAF: VOTP 070500Z 0706/0715 21010KT 6000 SCT020 SCT100

Observacions i pronòstics meteorològics de més de 4000 aeroports (METAR i TAF).

Les estacions disponibles són els punts grocs i vermells al mapa.

Posi el ratolí al punt desitjat per veure el nom de l'estació.

Feu clic per veure les observacions i els pronòstics meteorològics.

Per canviar el mapa: feu clic els botons verds amb una creu de color negre per apropar; al botó verd amb un guió per allunyar la imatge; o en les fletxes verdes per a mapes adjacents.


METAR-TAF: